sensor_id;sensor_type;location;lat;lon;timestamp;pressure;altitude;pressure_sealevel;temperature;humidity
27685;BME280;46113;50.130;8.526;2022-11-15T04:55:00;99614.13;;;5.93;82.12
27685;BME280;46113;50.130;8.526;2022-11-15T04:57:59;99614.09;;;5.95;82.31
27685;BME280;46113;50.130;8.526;2022-11-15T05:00:45;99619.38;;;5.93;82.33
27685;BME280;46113;50.130;8.526;2022-11-15T05:03:30;99611.81;;;5.84;82.81
27685;BME280;46113;50.130;8.526;2022-11-15T05:06:34;99609.28;;;5.81;82.92
27685;BME280;46113;50.130;8.526;2022-11-15T05:09:21;99624.28;;;5.77;83.48
27685;BME280;46113;50.130;8.526;2022-11-15T05:12:06;99614.94;;;5.68;83.80
27685;BME280;46113;50.130;8.526;2022-11-15T05:14:51;99611.50;;;5.66;84.18
27685;BME280;46113;50.130;8.526;2022-11-15T05:17:36;99608.13;;;5.63;84.02
27685;BME280;46113;50.130;8.526;2022-11-15T05:20:21;99607.06;;;5.68;83.79
27685;BME280;46113;50.130;8.526;2022-11-15T05:23:07;99603.41;;;5.72;84.15
27685;BME280;46113;50.130;8.526;2022-11-15T05:25:52;99597.16;;;5.77;84.11
27685;BME280;46113;50.130;8.526;2022-11-15T05:28:37;99598.03;;;5.77;84.41
27685;BME280;46113;50.130;8.526;2022-11-15T05:31:23;99601.47;;;5.79;83.83
27685;BME280;46113;50.130;8.526;2022-11-15T05:34:09;99593.59;;;5.79;84.09
27685;BME280;46113;50.130;8.526;2022-11-15T05:36:54;99598.03;;;5.77;84.18
27685;BME280;46113;50.130;8.526;2022-11-15T05:39:40;99598.09;;;5.76;84.27
27685;BME280;46113;50.130;8.526;2022-11-15T05:42:26;99590.22;;;5.76;83.67
27685;BME280;46113;50.130;8.526;2022-11-15T05:45:18;99585.75;;;5.78;83.51
27685;BME280;46113;50.130;8.526;2022-11-15T05:48:11;99581.47;;;5.75;83.59
27685;BME280;46113;50.130;8.526;2022-11-15T05:50:57;99583.94;;;5.80;83.63
27685;BME280;46113;50.130;8.526;2022-11-15T05:53:44;99587.38;;;5.82;83.79
27685;BME280;46113;50.130;8.526;2022-11-15T05:56:33;99580.41;;;5.81;83.56
27685;BME280;46113;50.130;8.526;2022-11-15T05:59:18;99584.59;;;5.86;83.08
27685;BME280;46113;50.130;8.526;2022-11-15T06:02:06;99580.16;;;5.89;83.56
27685;BME280;46113;50.130;8.526;2022-11-15T06:09:13;99591.75;;;5.81;83.81
27685;BME280;46113;50.130;8.526;2022-11-15T06:11:58;99597.59;;;5.64;84.19
27685;BME280;46113;50.130;8.526;2022-11-15T06:15:09;99595.84;;;5.63;84.09
27685;BME280;46113;50.130;8.526;2022-11-15T06:17:58;99593.78;;;5.73;83.49
27685;BME280;46113;50.130;8.526;2022-11-15T06:20:44;99599.59;;;5.83;82.70
27685;BME280;46113;50.130;8.526;2022-11-15T06:23:32;99599.09;;;5.71;82.90
27685;BME280;46113;50.130;8.526;2022-11-15T06:26:17;99603.47;;;5.71;83.29
27685;BME280;46113;50.130;8.526;2022-11-15T06:29:03;99606.81;;;5.76;83.18
27685;BME280;46113;50.130;8.526;2022-11-15T06:31:49;99609.38;;;5.78;82.52
27685;BME280;46113;50.130;8.526;2022-11-15T06:34:34;99604.63;;;5.89;82.68
27685;BME280;46113;50.130;8.526;2022-11-15T06:37:20;99610.81;;;5.88;81.51
27685;BME280;46113;50.130;8.526;2022-11-15T06:40:08;99605.47;;;5.91;82.34
27685;BME280;46113;50.130;8.526;2022-11-15T06:42:58;99595.78;;;5.92;82.44
27685;BME280;46113;50.130;8.526;2022-11-15T06:45:46;99594.75;;;5.97;82.24
27685;BME280;46113;50.130;8.526;2022-11-15T06:48:33;99597.59;;;5.64;83.95
27685;BME280;46113;50.130;8.526;2022-11-15T06:51:19;99601.91;;;5.65;84.61
27685;BME280;46113;50.130;8.526;2022-11-15T06:54:04;99602.09;;;5.59;85.33
27685;BME280;46113;50.130;8.526;2022-11-15T06:56:55;99597.88;;;5.82;84.52
27685;BME280;46113;50.130;8.526;2022-11-15T06:59:42;99600.16;;;5.93;84.67
27685;BME280;46113;50.130;8.526;2022-11-15T07:09:22;99591.50;;;5.89;84.62
27685;BME280;46113;50.130;8.526;2022-11-15T07:12:16;99604.13;;;5.78;85.12
27685;BME280;46113;50.130;8.526;2022-11-15T07:15:01;99604.75;;;5.86;84.84
27685;BME280;46113;50.130;8.526;2022-11-15T07:17:46;99604.03;;;5.81;84.82
27685;BME280;46113;50.130;8.526;2022-11-15T07:20:32;99598.03;;;5.77;85.29
27685;BME280;46113;50.130;8.526;2022-11-15T07:23:17;99601.16;;;5.89;85.00
27685;BME280;46113;50.130;8.526;2022-11-15T07:26:02;99599.00;;;6.02;84.22
27685;BME280;46113;50.130;8.526;2022-11-15T07:28:48;99597.56;;;6.18;83.92
27685;BME280;46113;50.130;8.526;2022-11-15T07:31:33;99593.97;;;6.21;83.47
27685;BME280;46113;50.130;8.526;2022-11-15T07:34:18;99588.38;;;6.30;82.63
27685;BME280;46113;50.130;8.526;2022-11-15T07:37:04;99587.38;;;6.34;82.36
27685;BME280;46113;50.130;8.526;2022-11-15T07:39:49;99602.44;;;6.29;82.00
27685;BME280;46113;50.130;8.526;2022-11-15T07:42:34;99609.59;;;6.25;82.54
27685;BME280;46113;50.130;8.526;2022-11-15T07:45:45;99604.16;;;6.30;82.73
27685;BME280;46113;50.130;8.526;2022-11-15T07:48:36;99604.31;;;6.25;82.29
27685;BME280;46113;50.130;8.526;2022-11-15T07:51:29;99603.50;;;6.23;82.64
27685;BME280;46113;50.130;8.526;2022-11-15T07:54:20;99604.34;;;6.49;82.05
27685;BME280;46113;50.130;8.526;2022-11-15T07:57:05;99593.66;;;6.56;81.77
27685;BME280;46113;50.130;8.526;2022-11-15T07:59:54;99595.03;;;6.66;81.03
27685;BME280;46113;50.130;8.526;2022-11-15T08:02:40;99597.16;;;6.80;81.09
27685;BME280;46113;50.130;8.526;2022-11-15T08:05:26;99604.50;;;6.70;80.57
27685;BME280;46113;50.130;8.526;2022-11-15T08:08:20;99593.50;;;6.84;79.91
27685;BME280;46113;50.130;8.526;2022-11-15T08:11:07;99601.25;;;6.87;79.25
27685;BME280;46113;50.130;8.526;2022-11-15T08:13:58;99598.44;;;6.68;79.21
27685;BME280;46113;50.130;8.526;2022-11-15T08:16:44;99600.03;;;6.48;79.49
27685;BME280;46113;50.130;8.526;2022-11-15T08:19:29;99599.97;;;6.50;80.01
27685;BME280;46113;50.130;8.526;2022-11-15T08:22:14;99598.22;;;6.74;80.35
27685;BME280;46113;50.130;8.526;2022-11-15T08:24:59;99599.09;;;6.75;79.96
27685;BME280;46113;50.130;8.526;2022-11-15T08:27:44;99596.47;;;6.75;79.38
27685;BME280;46113;50.130;8.526;2022-11-15T08:30:31;99595.53;;;6.76;79.58
27685;BME280;46113;50.130;8.526;2022-11-15T08:33:19;99605.19;;;6.75;79.32
27685;BME280;46113;50.130;8.526;2022-11-15T08:36:04;99611.13;;;6.81;79.09
27685;BME280;46113;50.130;8.526;2022-11-15T08:38:50;99604.47;;;6.96;79.16
27685;BME280;46113;50.130;8.526;2022-11-15T08:41:42;99598.34;;;6.95;79.03
27685;BME280;46113;50.130;8.526;2022-11-15T08:44:27;99601.78;;;6.97;79.35
27685;BME280;46113;50.130;8.526;2022-11-15T08:47:13;99607.00;;;6.99;79.36
27685;BME280;46113;50.130;8.526;2022-11-15T08:50:28;99599.41;;;6.91;79.67
27685;BME280;46113;50.130;8.526;2022-11-15T08:53:21;99596.63;;;6.94;79.33
27685;BME280;46113;50.130;8.526;2022-11-15T08:56:13;99595.34;;;7.06;79.25
27685;BME280;46113;50.130;8.526;2022-11-15T08:58:59;99597.56;;;6.93;78.29
27685;BME280;46113;50.130;8.526;2022-11-15T09:01:44;99596.75;;;6.91;79.31
27685;BME280;46113;50.130;8.526;2022-11-15T09:04:45;99598.47;;;6.92;79.53
27685;BME280;46113;50.130;8.526;2022-11-15T09:07:30;99594.63;;;7.01;79.46
27685;BME280;46113;50.130;8.526;2022-11-15T09:10:26;99591.69;;;7.10;78.64
27685;BME280;46113;50.130;8.526;2022-11-15T09:13:11;99592.00;;;7.01;79.01
27685;BME280;46113;50.130;8.526;2022-11-15T09:16:00;99590.34;;;6.98;79.28
27685;BME280;46113;50.130;8.526;2022-11-15T09:18:45;99590.22;;;7.25;78.73
27685;BME280;46113;50.130;8.526;2022-11-15T09:21:30;99584.75;;;7.31;79.12
27685;BME280;46113;50.130;8.526;2022-11-15T09:24:16;99591.56;;;7.36;79.28
27685;BME280;46113;50.130;8.526;2022-11-15T09:27:02;99587.19;;;7.58;78.41
27685;BME280;46113;50.130;8.526;2022-11-15T09:29:47;99590.56;;;7.62;79.65
27685;BME280;46113;50.130;8.526;2022-11-15T09:32:33;99587.13;;;7.38;77.98
27685;BME280;46113;50.130;8.526;2022-11-15T09:35:23;99570.47;;;7.37;78.58
27685;BME280;46113;50.130;8.526;2022-11-15T09:38:08;99577.84;;;7.29;79.11
27685;BME280;46113;50.130;8.526;2022-11-15T09:41:13;99582.47;;;7.22;79.29
27685;BME280;46113;50.130;8.526;2022-11-15T09:44:36;99581.38;;;7.50;79.64
27685;BME280;46113;50.130;8.526;2022-11-15T09:47:51;99577.41;;;7.83;78.17
27685;BME280;46113;50.130;8.526;2022-11-15T09:50:47;99579.41;;;7.55;77.57
27685;BME280;46113;50.130;8.526;2022-11-15T09:53:24;99573.47;;;7.50;77.03
27685;BME280;46113;50.130;8.526;2022-11-15T09:56:24;99570.72;;;7.31;77.51
27685;BME280;46113;50.130;8.526;2022-11-15T09:59:36;99573.66;;;7.46;77.52
27685;BME280;46113;50.130;8.526;2022-11-15T10:04:17;99572.31;;;7.80;78.31
27685;BME280;46113;50.130;8.526;2022-11-15T10:07:02;99560.44;;;7.47;78.17
27685;BME280;46113;50.130;8.526;2022-11-15T10:09:42;99550.59;;;7.95;78.50
27685;BME280;46113;50.130;8.526;2022-11-15T10:12:13;99550.47;;;7.76;77.22
27685;BME280;46113;50.130;8.526;2022-11-15T10:14:43;99549.97;;;7.89;77.03
27685;BME280;46113;50.130;8.526;2022-11-15T10:24:22;99540.81;;;7.97;77.39
27685;BME280;46113;50.130;8.526;2022-11-15T10:26:50;99543.31;;;7.37;78.38
27685;BME280;46113;50.130;8.526;2022-11-15T10:29:21;99546.81;;;7.58;78.58
27685;BME280;46113;50.130;8.526;2022-11-15T10:31:52;99538.53;;;7.47;78.67
27685;BME280;46113;50.130;8.526;2022-11-15T10:34:22;99536.53;;;7.74;79.33
27685;BME280;46113;50.130;8.526;2022-11-15T10:36:57;99537.75;;;7.44;80.46
27685;BME280;46113;50.130;8.526;2022-11-15T10:39:24;99539.63;;;7.84;80.25
27685;BME280;46113;50.130;8.526;2022-11-15T10:41:51;99535.19;;;7.64;80.01
27685;BME280;46113;50.130;8.526;2022-11-15T10:44:26;99530.06;;;7.81;79.25
27685;BME280;46113;50.130;8.526;2022-11-15T10:49:27;99507.69;;;8.13;80.10
27685;BME280;46113;50.130;8.526;2022-11-15T10:52:01;99508.56;;;8.32;79.81
27685;BME280;46113;50.130;8.526;2022-11-15T10:54:32;99500.84;;;7.88;79.76
27685;BME280;46113;50.130;8.526;2022-11-15T10:57:06;99494.38;;;8.16;79.93
27685;BME280;46113;50.130;8.526;2022-11-15T10:59:43;99492.44;;;8.19;78.93
27685;BME280;46113;50.130;8.526;2022-11-15T11:02:36;99481.09;;;8.38;80.09
27685;BME280;46113;50.130;8.526;2022-11-15T11:05:06;99477.31;;;8.65;79.03
27685;BME280;46113;50.130;8.526;2022-11-15T11:07:34;99459.41;;;8.71;78.99
27685;BME280;46113;50.130;8.526;2022-11-15T11:10:05;99465.72;;;8.48;77.54
27685;BME280;46113;50.130;8.526;2022-11-15T11:13:34;99467.97;;;8.36;78.64
27685;BME280;46113;50.130;8.526;2022-11-15T11:16:34;99457.84;;;8.27;78.57
27685;BME280;46113;50.130;8.526;2022-11-15T11:19:34;99455.19;;;8.48;78.00
27685;BME280;46113;50.130;8.526;2022-11-15T11:24:56;99444.78;;;8.64;77.75
27685;BME280;46113;50.130;8.526;2022-11-15T11:30:15;99431.16;;;8.73;77.22
27685;BME280;46113;50.130;8.526;2022-11-15T11:33:07;99436.00;;;9.20;77.28
27685;BME280;46113;50.130;8.526;2022-11-15T11:35:45;99436.63;;;9.42;76.91
27685;BME280;46113;50.130;8.526;2022-11-15T11:38:30;99435.53;;;9.29;75.95
27685;BME280;46113;50.130;8.526;2022-11-15T11:44:16;99434.34;;;8.99;77.01
27685;BME280;46113;50.130;8.526;2022-11-15T11:47:12;99426.66;;;9.12;77.39
27685;BME280;46113;50.130;8.526;2022-11-15T11:49:47;99437.72;;;9.38;76.26
27685;BME280;46113;50.130;8.526;2022-11-15T11:52:29;99424.41;;;9.05;76.48
27685;BME280;46113;50.130;8.526;2022-11-15T11:55:36;99421.72;;;9.41;75.68
27685;BME280;46113;50.130;8.526;2022-11-15T12:00:56;99422.66;;;9.23;75.85
27685;BME280;46113;50.130;8.526;2022-11-15T12:03:39;99416.03;;;9.14;76.46
27685;BME280;46113;50.130;8.526;2022-11-15T12:12:53;99405.94;;;8.48;78.62
27685;BME280;46113;50.130;8.526;2022-11-15T12:15:52;99396.84;;;8.56;78.07
27685;BME280;46113;50.130;8.526;2022-11-15T12:18:56;99386.81;;;8.82;77.43
27685;BME280;46113;50.130;8.526;2022-11-15T12:24:27;99390.66;;;9.29;77.13
27685;BME280;46113;50.130;8.526;2022-11-15T12:27:36;99387.69;;;9.00;76.67
27685;BME280;46113;50.130;8.526;2022-11-15T12:30:13;99382.94;;;8.89;77.10
27685;BME280;46113;50.130;8.526;2022-11-15T12:35:24;99380.72;;;8.99;76.32
27685;BME280;46113;50.130;8.526;2022-11-15T12:37:53;99373.53;;;8.83;77.00
27685;BME280;46113;50.130;8.526;2022-11-15T12:40:29;99369.13;;;8.84;77.64
27685;BME280;46113;50.130;8.526;2022-11-15T12:48:51;99370.00;;;8.65;77.50
27685;BME280;46113;50.130;8.526;2022-11-15T12:59:06;99341.28;;;9.13;76.92
27685;BME280;46113;50.130;8.526;2022-11-15T13:07:04;99331.50;;;9.33;75.97
27685;BME280;46113;50.130;8.526;2022-11-15T13:12:48;99329.25;;;9.08;74.83
27685;BME280;46113;50.130;8.526;2022-11-15T13:17:32;99321.75;;;9.51;75.57
27685;BME280;46113;50.130;8.526;2022-11-15T13:20:01;99320.06;;;9.50;76.11
27685;BME280;46113;50.130;8.526;2022-11-15T13:26:33;99318.28;;;9.67;75.02
27685;BME280;46113;50.130;8.526;2022-11-15T13:31:37;99304.94;;;9.70;74.38
27685;BME280;46113;50.130;8.526;2022-11-15T13:34:33;99297.75;;;9.90;74.73
27685;BME280;46113;50.130;8.526;2022-11-15T13:40:36;99294.50;;;9.85;72.85
27685;BME280;46113;50.130;8.526;2022-11-15T13:46:21;99290.09;;;10.01;72.92
27685;BME280;46113;50.130;8.526;2022-11-15T13:49:09;99283.84;;;10.02;72.02
27685;BME280;46113;50.130;8.526;2022-11-15T13:51:50;99280.78;;;10.10;72.58
27685;BME280;46113;50.130;8.526;2022-11-15T13:54:29;99280.28;;;10.19;72.88
27685;BME280;46113;50.130;8.526;2022-11-15T13:57:08;99275.00;;;10.19;72.67
27685;BME280;46113;50.130;8.526;2022-11-15T13:59:51;99269.03;;;10.16;71.60
27685;BME280;46113;50.130;8.526;2022-11-15T14:02:21;99272.19;;;10.22;72.24
27685;BME280;46113;50.130;8.526;2022-11-15T14:04:53;99267.66;;;10.25;71.73
27685;BME280;46113;50.130;8.526;2022-11-15T14:07:24;99269.47;;;10.24;71.84
27685;BME280;46113;50.130;8.526;2022-11-15T14:10:17;99264.94;;;10.26;72.00
27685;BME280;46113;50.130;8.526;2022-11-15T14:12:50;99262.19;;;10.28;72.12
27685;BME280;46113;50.130;8.526;2022-11-15T14:15:26;99256.25;;;10.24;72.15
27685;BME280;46113;50.130;8.526;2022-11-15T14:17:53;99247.44;;;10.24;72.28
27685;BME280;46113;50.130;8.526;2022-11-15T14:20:33;99246.50;;;10.25;73.06
27685;BME280;46113;50.130;8.526;2022-11-15T14:25:54;99242.69;;;10.14;73.66
27685;BME280;46113;50.130;8.526;2022-11-15T14:30:53;99224.53;;;10.08;73.98
27685;BME280;46113;50.130;8.526;2022-11-15T14:33:29;99221.22;;;10.04;74.02
27685;BME280;46113;50.130;8.526;2022-11-15T14:35:58;99216.88;;;10.03;73.84
27685;BME280;46113;50.130;8.526;2022-11-15T14:38:26;99223.34;;;9.98;73.59
27685;BME280;46113;50.130;8.526;2022-11-15T14:40:54;99225.31;;;9.94;74.33
27685;BME280;46113;50.130;8.526;2022-11-15T14:43:22;99216.72;;;9.90;74.89
27685;BME280;46113;50.130;8.526;2022-11-15T14:45:48;99207.16;;;9.88;74.97
27685;BME280;46113;50.130;8.526;2022-11-15T14:48:15;99211.59;;;9.87;75.27
27685;BME280;46113;50.130;8.526;2022-11-15T14:50:43;99202.13;;;9.83;75.36
27685;BME280;46113;50.130;8.526;2022-11-15T14:53:15;99197.09;;;9.78;75.79
27685;BME280;46113;50.130;8.526;2022-11-15T14:55:42;99191.28;;;9.72;76.05
27685;BME280;46113;50.130;8.526;2022-11-15T14:58:09;99184.19;;;9.72;76.21
27685;BME280;46113;50.130;8.526;2022-11-15T15:00:38;99177.91;;;9.75;76.19
27685;BME280;46113;50.130;8.526;2022-11-15T15:03:06;99170.31;;;9.68;76.00
27685;BME280;46113;50.130;8.526;2022-11-15T15:05:38;99172.94;;;9.68;76.28
27685;BME280;46113;50.130;8.526;2022-11-15T15:08:06;99167.94;;;9.64;76.98
27685;BME280;46113;50.130;8.526;2022-11-15T15:10:35;99167.41;;;9.57;76.90
27685;BME280;46113;50.130;8.526;2022-11-15T15:13:18;99169.19;;;9.56;77.41
27685;BME280;46113;50.130;8.526;2022-11-15T15:15:46;99167.56;;;9.54;77.80
27685;BME280;46113;50.130;8.526;2022-11-15T15:18:19;99160.78;;;9.50;77.99
27685;BME280;46113;50.130;8.526;2022-11-15T15:20:55;99163.50;;;9.48;77.96
27685;BME280;46113;50.130;8.526;2022-11-15T15:23:23;99154.72;;;9.48;78.16
27685;BME280;46113;50.130;8.526;2022-11-15T15:25:51;99147.81;;;9.45;78.26
27685;BME280;46113;50.130;8.526;2022-11-15T15:28:23;99137.44;;;9.42;78.39
27685;BME280;46113;50.130;8.526;2022-11-15T15:30:55;99140.22;;;9.39;78.50
27685;BME280;46113;50.130;8.526;2022-11-15T15:33:21;99126.66;;;9.29;78.60
27685;BME280;46113;50.130;8.526;2022-11-15T15:35:48;99122.41;;;9.26;78.87
27685;BME280;46113;50.130;8.526;2022-11-15T15:38:15;99133.06;;;9.25;79.46
27685;BME280;46113;50.130;8.526;2022-11-15T15:40:42;99129.53;;;8.92;79.45
27685;BME280;46113;50.130;8.526;2022-11-15T15:43:08;99124.84;;;8.97;79.65
27685;BME280;46113;50.130;8.526;2022-11-15T15:45:40;99124.84;;;8.97;79.79
27685;BME280;46113;50.130;8.526;2022-11-15T15:48:15;99115.97;;;8.82;80.17
27685;BME280;46113;50.130;8.526;2022-11-15T15:50:47;99117.03;;;8.62;81.28
27685;BME280;46113;50.130;8.526;2022-11-15T15:53:17;99112.50;;;8.64;81.38
27685;BME280;46113;50.130;8.526;2022-11-15T15:55:43;99118.19;;;8.56;81.76
27685;BME280;46113;50.130;8.526;2022-11-15T15:58:11;99102.91;;;8.63;81.30
27685;BME280;46113;50.130;8.526;2022-11-15T16:00:39;99113.53;;;8.61;81.30
27685;BME280;46113;50.130;8.526;2022-11-15T16:03:07;99104.53;;;8.66;81.31
27685;BME280;46113;50.130;8.526;2022-11-15T16:05:34;99097.63;;;8.63;81.49
27685;BME280;46113;50.130;8.526;2022-11-15T16:08:03;99098.78;;;8.57;81.38
27685;BME280;46113;50.130;8.526;2022-11-15T16:10:33;99102.13;;;8.43;81.62
27685;BME280;46113;50.130;8.526;2022-11-15T16:13:01;99101.25;;;8.43;81.63
27685;BME280;46113;50.130;8.526;2022-11-15T16:15:29;99104.00;;;8.41;81.66
27685;BME280;46113;50.130;8.526;2022-11-15T16:17:58;99101.75;;;8.33;81.90
27685;BME280;46113;50.130;8.526;2022-11-15T16:22:59;99097.34;;;8.52;81.74
27685;BME280;46113;50.130;8.526;2022-11-15T16:25:42;99089.66;;;8.47;81.92
27685;BME280;46113;50.130;8.526;2022-11-15T16:28:37;99085.53;;;8.41;81.81
27685;BME280;46113;50.130;8.526;2022-11-15T16:31:14;99089.47;;;8.32;82.34
27685;BME280;46113;50.130;8.526;2022-11-15T16:33:44;99092.72;;;8.37;81.69
27685;BME280;46113;50.130;8.526;2022-11-15T16:36:48;99087.56;;;8.36;82.23
27685;BME280;46113;50.130;8.526;2022-11-15T16:39:17;99081.78;;;8.45;81.68
27685;BME280;46113;50.130;8.526;2022-11-15T16:41:46;99079.25;;;8.44;81.58
27685;BME280;46113;50.130;8.526;2022-11-15T16:44:13;99074.75;;;8.46;81.64
27685;BME280;46113;50.130;8.526;2022-11-15T16:46:41;99070.41;;;8.45;81.34
27685;BME280;46113;50.130;8.526;2022-11-15T16:49:12;99072.56;;;8.36;81.36
27685;BME280;46113;50.130;8.526;2022-11-15T16:51:41;99078.78;;;8.35;81.59
27685;BME280;46113;50.130;8.526;2022-11-15T16:54:07;99076.41;;;8.31;81.67
27685;BME280;46113;50.130;8.526;2022-11-15T16:56:35;99074.06;;;8.24;81.67
27685;BME280;46113;50.130;8.526;2022-11-15T16:59:08;99068.09;;;8.21;81.63
27685;BME280;46113;50.130;8.526;2022-11-15T17:01:38;99065.31;;;8.24;81.75
27685;BME280;46113;50.130;8.526;2022-11-15T17:04:12;99058.16;;;8.26;81.79
27685;BME280;46113;50.130;8.526;2022-11-15T17:06:39;99049.72;;;8.19;82.05
27685;BME280;46113;50.130;8.526;2022-11-15T17:09:11;99050.84;;;8.15;82.33
27685;BME280;46113;50.130;8.526;2022-11-15T17:11:40;99046.31;;;8.17;81.83
27685;BME280;46113;50.130;8.526;2022-11-15T17:14:06;99053.69;;;8.10;82.14
27685;BME280;46113;50.130;8.526;2022-11-15T17:16:33;99049.22;;;8.13;82.19
27685;BME280;46113;50.130;8.526;2022-11-15T17:19:01;99046.94;;;7.87;81.90
27685;BME280;46113;50.130;8.526;2022-11-15T17:21:27;99043.44;;;7.87;82.39
27685;BME280;46113;50.130;8.526;2022-11-15T17:23:59;99041.19;;;7.79;82.68
27685;BME280;46113;50.130;8.526;2022-11-15T17:26:25;99044.78;;;7.95;82.68
27685;BME280;46113;50.130;8.526;2022-11-15T17:28:59;99033.16;;;7.82;82.65
27685;BME280;46113;50.130;8.526;2022-11-15T17:31:27;99035.25;;;7.75;82.93
27685;BME280;46113;50.130;8.526;2022-11-15T17:33:56;99031.38;;;7.82;82.75
27685;BME280;46113;50.130;8.526;2022-11-15T17:36:22;99033.72;;;7.89;82.75
27685;BME280;46113;50.130;8.526;2022-11-15T17:38:48;99018.38;;;7.79;82.70
27685;BME280;46113;50.130;8.526;2022-11-15T17:41:25;99017.75;;;7.74;82.96
27685;BME280;46113;50.130;8.526;2022-11-15T17:43:52;99024.72;;;7.93;82.60
27685;BME280;46113;50.130;8.526;2022-11-15T17:46:19;99015.72;;;7.97;82.26
27685;BME280;46113;50.130;8.526;2022-11-15T17:48:47;99018.75;;;7.89;82.09
27685;BME280;46113;50.130;8.526;2022-11-15T17:51:16;99015.41;;;7.86;81.94
27685;BME280;46113;50.130;8.526;2022-11-15T17:53:45;99017.22;;;7.85;81.85
27685;BME280;46113;50.130;8.526;2022-11-15T17:56:14;99011.78;;;7.88;81.86
27685;BME280;46113;50.130;8.526;2022-11-15T17:58:41;99016.09;;;7.89;81.93
27685;BME280;46113;50.130;8.526;2022-11-15T18:01:14;99013.41;;;7.91;81.83
27685;BME280;46113;50.130;8.526;2022-11-15T18:03:44;99009.69;;;7.95;81.63
27685;BME280;46113;50.130;8.526;2022-11-15T18:06:12;99007.81;;;7.97;81.46
27685;BME280;46113;50.130;8.526;2022-11-15T18:08:41;99000.56;;;7.84;81.91
27685;BME280;46113;50.130;8.526;2022-11-15T18:11:17;98999.69;;;7.84;81.40
27685;BME280;46113;50.130;8.526;2022-11-15T18:13:49;98991.03;;;7.82;81.88
27685;BME280;46113;50.130;8.526;2022-11-15T18:16:21;98990.47;;;7.75;82.14
27685;BME280;46113;50.130;8.526;2022-11-15T18:18:48;98990.78;;;7.87;81.68
27685;BME280;46113;50.130;8.526;2022-11-15T18:21:20;98988.16;;;7.87;81.28
27685;BME280;46113;50.130;8.526;2022-11-15T18:23:48;98992.88;;;7.97;81.00
27685;BME280;46113;50.130;8.526;2022-11-15T18:26:16;98989.88;;;7.88;81.01
27685;BME280;46113;50.130;8.526;2022-11-15T18:28:45;98981.19;;;7.86;81.70
27685;BME280;46113;50.130;8.526;2022-11-15T18:33:43;98984.22;;;7.95;80.90
27685;BME280;46113;50.130;8.526;2022-11-15T18:36:12;98979.63;;;7.99;80.61
27685;BME280;46113;50.130;8.526;2022-11-15T18:38:39;98975.97;;;8.02;80.50
27685;BME280;46113;50.130;8.526;2022-11-15T18:41:12;98978.22;;;8.09;80.85
27685;BME280;46113;50.130;8.526;2022-11-15T18:43:39;98977.97;;;8.14;80.98
27685;BME280;46113;50.130;8.526;2022-11-15T18:46:10;98971.38;;;8.23;79.98
27685;BME280;46113;50.130;8.526;2022-11-15T18:48:38;98969.50;;;8.25;79.36
27685;BME280;46113;50.130;8.526;2022-11-15T18:51:06;98967.13;;;8.20;78.99
27685;BME280;46113;50.130;8.526;2022-11-15T18:53:34;98961.69;;;8.23;79.02
27685;BME280;46113;50.130;8.526;2022-11-15T18:56:06;98961.00;;;8.20;79.40
27685;BME280;46113;50.130;8.526;2022-11-15T18:58:40;98963.97;;;8.14;79.40
27685;BME280;46113;50.130;8.526;2022-11-15T19:01:13;98960.78;;;8.07;79.41
27685;BME280;46113;50.130;8.526;2022-11-15T19:03:42;98961.19;;;7.99;79.87
27685;BME280;46113;50.130;8.526;2022-11-15T19:06:11;98953.91;;;8.04;79.79
27685;BME280;46113;50.130;8.526;2022-11-15T19:08:39;98946.59;;;8.09;79.23
27685;BME280;46113;50.130;8.526;2022-11-15T19:11:30;98949.25;;;8.09;79.26
27685;BME280;46113;50.130;8.526;2022-11-15T19:13:59;98951.09;;;8.07;78.96
27685;BME280;46113;50.130;8.526;2022-11-15T19:16:30;98948.44;;;8.07;79.50
27685;BME280;46113;50.130;8.526;2022-11-15T19:19:01;98938.25;;;8.01;78.92
27685;BME280;46113;50.130;8.526;2022-11-15T19:21:28;98941.34;;;7.92;79.72
27685;BME280;46113;50.130;8.526;2022-11-15T19:23:57;98943.16;;;7.91;79.55
27685;BME280;46113;50.130;8.526;2022-11-15T19:26:25;98947.22;;;7.97;79.66
27685;BME280;46113;50.130;8.526;2022-11-15T19:28:54;98948.97;;;7.98;79.60
27685;BME280;46113;50.130;8.526;2022-11-15T19:31:27;98947.84;;;8.02;79.42
27685;BME280;46113;50.130;8.526;2022-11-15T19:33:54;98945.31;;;8.01;79.08
27685;BME280;46113;50.130;8.526;2022-11-15T19:36:44;98936.78;;;7.95;79.24
27685;BME280;46113;50.130;8.526;2022-11-15T19:39:12;98943.19;;;8.07;78.65
27685;BME280;46113;50.130;8.526;2022-11-15T19:41:40;98941.47;;;8.06;78.74
27685;BME280;46113;50.130;8.526;2022-11-15T19:44:10;98937.81;;;7.93;78.84
27685;BME280;46113;50.130;8.526;2022-11-15T19:46:39;98931.53;;;7.95;78.60
27685;BME280;46113;50.130;8.526;2022-11-15T19:49:06;98930.41;;;8.00;78.48
27685;BME280;46113;50.130;8.526;2022-11-15T19:51:35;98928.56;;;8.02;78.72
27685;BME280;46113;50.130;8.526;2022-11-15T19:54:02;98926.00;;;8.00;78.95
27685;BME280;46113;50.130;8.526;2022-11-15T19:56:37;98932.13;;;8.01;78.77
27685;BME280;46113;50.130;8.526;2022-11-15T19:59:32;98923.44;;;7.98;78.83
27685;BME280;46113;50.130;8.526;2022-11-15T20:01:59;98920.81;;;7.98;79.07
27685;BME280;46113;50.130;8.526;2022-11-15T20:04:25;98922.16;;;7.90;79.34
27685;BME280;46113;50.130;8.526;2022-11-15T20:06:52;98913.78;;;7.99;79.65
27685;BME280;46113;50.130;8.526;2022-11-15T20:09:19;98914.09;;;7.93;80.08
27685;BME280;46113;50.130;8.526;2022-11-15T20:11:46;98917.66;;;7.92;79.87
27685;BME280;46113;50.130;8.526;2022-11-15T20:14:14;98913.50;;;7.88;80.26
27685;BME280;46113;50.130;8.526;2022-11-15T20:16:41;98908.97;;;7.90;80.31
27685;BME280;46113;50.130;8.526;2022-11-15T20:19:08;98910.06;;;7.86;80.06
27685;BME280;46113;50.130;8.526;2022-11-15T20:21:35;98903.25;;;7.81;80.44
27685;BME280;46113;50.130;8.526;2022-11-15T20:24:03;98905.59;;;7.88;80.36
27685;BME280;46113;50.130;8.526;2022-11-15T20:26:30;98906.44;;;7.88;80.52
27685;BME280;46113;50.130;8.526;2022-11-15T20:28:58;98901.84;;;7.92;80.75
27685;BME280;46113;50.130;8.526;2022-11-15T20:31:28;98896.91;;;7.86;81.04
27685;BME280;46113;50.130;8.526;2022-11-15T20:33:54;98898.09;;;7.80;81.15
27685;BME280;46113;50.130;8.526;2022-11-15T20:36:21;98899.72;;;7.82;81.59